Time;durP1;ratioP1;P1;durP2;ratioP2;P2;SDS_P1;SDS_P2;PMS_P1;PMS_P2;Temp;Humidity;BMP_temperature;BMP_pressure;BME280_temperature;BME280_humidity;BME280_pressure;Samples;Min_cycle;Max_cycle;Signal;HPM_P1;HPM_P2
2022/06/25 00:00:35;;;;;;;5.18;4.10;;;;;;;19.16;83.64;100264.91;6023968;28;20085;-67
2022/06/25 00:03:30;;;;;;;6.15;3.75;;;;;;;18.91;84.15;100272.88;6020164;28;20038;-67
2022/06/25 00:06:26;;;;;;;6.82;4.30;;;;;;;18.62;85.33;100270.63;6038652;28;20038;-68
2022/06/25 00:09:21;;;;;;;5.80;4.35;;;;;;;18.49;86.22;100276.03;6024125;28;20073;-67
2022/06/25 00:12:31;;;;;;;7.97;5.00;;;;;;;18.23;86.89;100278.69;6011981;28;20494;-67
2022/06/25 00:15:27;;;;;;;6.63;5.22;;;;;;;18.01;88.27;100277.22;6021801;28;20316;-68
2022/06/25 00:18:22;;;;;;;6.20;4.43;;;;;;;17.91;89.29;100298.28;6025390;28;20030;-68
2022/06/25 00:21:17;;;;;;;7.27;5.47;;;;;;;17.81;90.11;100299.47;6023912;28;20026;-67
2022/06/25 00:24:16;;;;;;;8.17;5.00;;;;;;;17.74;90.95;100290.59;6021142;28;20061;-67
2022/06/25 00:27:11;;;;;;;8.68;5.60;;;;;;;17.71;91.38;100307.09;6023612;28;20169;-68
2022/06/25 00:30:09;;;;;;;9.10;5.90;;;;;;;17.77;91.04;100300.91;6022830;28;20030;-68
2022/06/25 00:33:04;;;;;;;6.78;5.22;;;;;;;17.58;91.16;100296.31;6019198;28;20038;-66
2022/06/25 00:36:00;;;;;;;9.63;5.55;;;;;;;17.64;91.41;100310.75;6025815;28;20030;-66
2022/06/25 00:38:56;;;;;;;9.60;6.00;;;;;;;17.67;91.61;100321.09;6024957;28;20038;-66
2022/06/25 00:41:51;;;;;;;10.25;6.10;;;;;;;17.55;92.19;100307.47;6019394;28;20062;-66
2022/06/25 00:44:46;;;;;;;8.97;6.37;;;;;;;17.49;92.71;100308.22;6016769;28;20065;-66
2022/06/25 00:47:42;;;;;;;8.63;5.78;;;;;;;17.33;93.02;100308.56;6020422;28;20030;-66
2022/06/25 00:50:37;;;;;;;9.70;6.80;;;;;;;17.21;93.40;100294.06;6024032;28;20042;-66
2022/06/25 00:53:33;;;;;;;10.10;6.80;;;;;;;17.13;94.09;100297.75;6024099;28;20026;-66
2022/06/25 00:56:32;;;;;;;10.80;6.88;;;;;;;17.09;94.37;100296.47;6024529;28;20649;-66
2022/06/25 00:59:28;;;;;;;9.77;6.88;;;;;;;17.03;95.01;100305.34;6024278;28;20363;-66
2022/06/25 01:02:23;;;;;;;11.52;8.15;;;;;;;17.13;95.49;100308.47;6023325;28;20045;-66
2022/06/25 01:05:19;;;;;;;13.00;8.10;;;;;;;17.26;95.42;100319.25;6029959;28;20402;-66
2022/06/25 01:08:14;;;;;;;14.75;7.35;;;;;;;17.46;95.65;100308.63;6019306;28;20034;-66
2022/06/25 01:11:11;;;;;;;11.80;7.60;;;;;;;17.40;94.29;100314.78;6028182;28;20062;-66
2022/06/25 01:14:10;;;;;;;12.20;8.07;;;;;;;17.24;94.04;100315.13;6021396;28;20117;-68
2022/06/25 01:17:09;;;;;;;13.07;8.00;;;;;;;17.25;94.85;100311.41;6026786;28;20046;-68
2022/06/25 01:20:04;;;;;;;12.77;8.32;;;;;;;17.33;94.97;100307.75;6028861;28;20042;-68
2022/06/25 01:23:00;;;;;;;13.45;8.13;;;;;;;17.39;94.48;100313.13;6022889;28;20370;-68
2022/06/25 01:25:55;;;;;;;12.93;8.67;;;;;;;17.30;94.31;100317.00;6029361;28;20038;-68
2022/06/25 01:28:51;;;;;;;13.07;8.65;;;;;;;17.17;94.46;100325.00;6029263;28;20023;-68
2022/06/25 01:31:46;;;;;;;15.10;9.43;;;;;;;17.10;94.82;100326.78;6022277;28;20070;-66
2022/06/25 01:34:41;;;;;;;13.93;8.80;;;;;;;17.07;95.29;100324.50;6027543;28;20034;-66
2022/06/25 01:37:37;;;;;;;13.52;9.70;;;;;;;17.10;95.47;100334.81;6028380;28;20508;-66
2022/06/25 01:40:33;;;;;;;13.43;9.13;;;;;;;17.03;95.33;100336.66;6028457;28;20037;-66
2022/06/25 01:43:28;;;;;;;15.60;9.15;;;;;;;16.97;95.89;100329.41;6024332;28;20038;-66
2022/06/25 01:46:23;;;;;;;14.43;9.63;;;;;;;16.96;95.72;100312.47;6027025;28;20039;-66
2022/06/25 01:49:19;;;;;;;13.57;9.50;;;;;;;17.00;95.56;100345.06;6028996;28;20118;-66
2022/06/25 01:52:14;;;;;;;15.50;9.43;;;;;;;17.36;95.81;100337.66;6017867;28;20286;-66
2022/06/25 01:55:10;;;;;;;13.55;8.07;;;;;;;17.32;94.59;100328.34;6022374;28;20573;-65
2022/06/25 01:58:05;;;;;;;13.10;8.82;;;;;;;17.55;93.83;100333.44;6028552;28;20038;-66
2022/06/25 02:01:01;;;;;;;12.55;8.82;;;;;;;17.83;92.27;100336.81;6026750;28;20034;-65
2022/06/25 02:03:56;;;;;;;14.10;9.07;;;;;;;17.80;91.48;100343.41;6025142;28;20435;-65
2022/06/25 02:06:51;;;;;;;12.40;8.23;;;;;;;18.26;91.99;100348.06;6028235;28;20038;-65
2022/06/25 02:09:47;;;;;;;15.03;8.83;;;;;;;18.19;90.22;100347.22;6026487;28;20042;-65
2022/06/25 02:12:42;;;;;;;11.55;8.68;;;;;;;18.03;89.66;100353.81;6027328;28;20036;-66
2022/06/25 02:15:38;;;;;;;16.23;9.67;;;;;;;17.96;90.65;100349.47;6025934;28;20051;-65
2022/06/25 02:18:33;;;;;;;15.77;9.33;;;;;;;18.06;90.48;100348.03;6027665;28;20030;-68
2022/06/25 02:21:30;;;;;;;15.10;9.02;;;;;;;17.76;90.91;100347.53;6026795;28;20042;-65
2022/06/25 02:24:25;;;;;;;11.95;8.73;;;;;;;17.68;91.63;100355.78;6027155;28;20037;-66
2022/06/25 02:27:20;;;;;;;13.90;9.37;;;;;;;17.68;91.60;100353.09;6027891;28;20026;-66
2022/06/25 02:30:16;;;;;;;13.80;9.37;;;;;;;17.55;92.34;100350.38;6025058;28;20286;-66
2022/06/25 02:33:12;;;;;;;11.60;8.70;;;;;;;17.47;92.65;100353.19;6013982;28;20031;-66
2022/06/25 02:36:08;;;;;;;13.43;9.25;;;;;;;17.33;93.40;100356.00;6027334;28;20033;-65
2022/06/25 02:39:03;;;;;;;13.17;9.63;;;;;;;17.58;93.31;100354.50;6026035;28;20034;-66
2022/06/25 02:41:58;;;;;;;13.43;9.23;;;;;;;17.43;92.80;100359.97;6015726;28;20057;-66
2022/06/25 02:44:54;;;;;;;15.10;8.97;;;;;;;17.40;93.55;100365.72;6027224;28;20136;-67
2022/06/25 02:47:49;;;;;;;13.27;9.20;;;;;;;17.72;92.70;100367.75;6011053;28;20278;-67
2022/06/25 02:50:44;;;;;;;15.87;9.27;;;;;;;17.74;92.81;100371.06;6016838;28;20112;-67
2022/06/25 02:53:39;;;;;;;14.27;8.97;;;;;;;18.21;90.52;100370.16;6021675;28;20117;-67
2022/06/25 02:59:49;;;;;;;15.18;8.98;;;;;;;18.52;88.18;100364.22;6018822;28;20034;-67
2022/06/25 03:02:44;;;;;;;19.55;9.73;;;;;;;18.20;87.88;100373.88;6022479;28;20475;-67
2022/06/25 03:05:40;;;;;;;12.50;8.37;;;;;;;18.18;88.74;100375.13;6020118;28;20039;-67
2022/06/25 03:08:35;;;;;;;11.18;7.95;;;;;;;18.36;89.15;100375.34;6017880;28;20050;-67
2022/06/25 03:11:31;;;;;;;12.45;8.45;;;;;;;18.34;87.57;100372.84;6018161;28;20034;-67
2022/06/25 03:14:26;;;;;;;12.80;8.13;;;;;;;18.45;88.12;100384.88;6014177;28;20058;-67
2022/06/25 03:17:22;;;;;;;12.98;8.68;;;;;;;18.17;87.80;100389.56;6016777;28;20745;-67
2022/06/25 03:20:17;;;;;;;13.27;8.63;;;;;;;18.14;88.91;100389.97;6024997;28;20049;-67
2022/06/25 03:23:12;;;;;;;11.10;8.00;;;;;;;18.12;89.14;100389.34;6022061;28;20030;-67
2022/06/25 03:26:07;;;;;;;11.70;8.00;;;;;;;18.17;88.62;100387.72;6022758;28;20041;-67
2022/06/25 03:29:03;;;;;;;15.23;9.07;;;;;;;18.15;88.35;100388.94;6015112;28;20127;-67
2022/06/25 03:31:58;;;;;;;12.07;8.00;;;;;;;17.93;89.54;100395.47;6023994;28;20039;-67
2022/06/25 03:34:53;;;;;;;11.20;8.40;;;;;;;17.90;89.55;100385.97;6023616;28;20470;-67
2022/06/25 03:37:49;;;;;;;11.40;7.57;;;;;;;18.00;89.39;100385.59;6016422;28;20500;-67
2022/06/25 03:40:44;;;;;;;13.17;8.00;;;;;;;17.91;90.32;100394.84;6023060;28;20038;-67
2022/06/25 03:43:40;;;;;;;11.98;8.02;;;;;;;17.79;90.39;100397.28;6019463;28;20038;-67
2022/06/25 03:46:36;;;;;;;11.82;7.57;;;;;;;17.68;90.86;100398.69;6016359;28;20772;-67
2022/06/25 03:49:32;;;;;;;13.30;7.78;;;;;;;17.59;91.81;100399.88;6016974;28;20074;-67
2022/06/25 03:52:27;;;;;;;15.47;8.20;;;;;;;17.79;91.20;100398.13;6024075;28;20030;-67
2022/06/25 03:55:22;;;;;;;12.80;8.27;;;;;;;17.97;91.20;100408.28;6012336;28;20313;-67
2022/06/25 03:58:18;;;;;;;11.77;7.90;;;;;;;18.08;89.55;100406.88;6025011;28;20037;-67
2022/06/25 04:01:13;;;;;;;15.77;8.07;;;;;;;18.19;88.72;100412.47;6023107;28;20281;-67
2022/06/25 04:04:09;;;;;;;10.73;8.05;;;;;;;18.01;89.46;100419.44;6013457;28;20031;-67
2022/06/25 04:07:04;;;;;;;11.98;7.78;;;;;;;17.87;90.37;100429.31;6025431;28;20105;-67
2022/06/25 04:10:00;;;;;;;9.60;7.38;;;;;;;17.77;90.98;100424.28;6013230;28;20035;-67
2022/06/25 04:12:55;;;;;;;8.97;6.80;;;;;;;18.10;91.13;100421.72;6022996;28;20042;-67
2022/06/25 04:15:50;;;;;;;9.03;7.00;;;;;;;18.20;89.69;100435.63;6011896;28;20089;-67
2022/06/25 04:18:45;;;;;;;12.50;7.13;;;;;;;18.06;89.35;100433.09;6011994;28;20098;-67
2022/06/25 04:21:42;;;;;;;9.50;5.97;;;;;;;18.08;89.73;100439.06;6022075;28;20518;-67
2022/06/25 04:24:38;;;;;;;11.65;7.00;;;;;;;18.00;90.06;100434.72;6023550;28;20053;-67
2022/06/25 04:30:47;;;;;;;13.88;5.95;;;;;;;18.76;87.40;100436.16;6025404;28;20039;-67
2022/06/25 04:33:43;;;;;;;9.33;6.27;;;;;;;18.45;86.64;100435.88;6020320;28;20038;-67
2022/06/25 04:36:38;;;;;;;10.10;6.70;;;;;;;18.35;86.90;100438.94;6025634;28;20038;-67
2022/06/25 04:39:34;;;;;;;9.63;5.80;;;;;;;18.36;87.43;100442.47;6021097;28;20277;-67
2022/06/25 04:42:29;;;;;;;11.95;6.53;;;;;;;18.04;87.85;100453.94;6029460;28;20277;-67
2022/06/25 04:45:24;;;;;;;9.40;5.87;;;;;;;18.03;88.51;100461.16;6026621;28;20037;-67
2022/06/25 04:48:20;;;;;;;11.35;6.93;;;;;;;17.81;89.36;100459.59;6026079;28;20111;-67
2022/06/25 04:51:15;;;;;;;12.20;6.83;;;;;;;17.75;89.77;100469.28;6020241;28;20057;-67
2022/06/25 04:54:10;;;;;;;10.97;6.50;;;;;;;17.87;89.57;100474.91;6027411;28;20549;-67
2022/06/25 04:57:06;;;;;;;8.00;5.87;;;;;;;17.94;89.64;100477.63;6029272;28;20074;-65
2022/06/25 05:00:01;;;;;;;9.52;6.43;;;;;;;17.91;89.03;100467.31;6016287;28;20048;-65
2022/06/25 05:02:56;;;;;;;13.47;6.20;;;;;;;18.03;88.08;100493.34;6020631;28;20065;-65
2022/06/25 05:05:52;;;;;;;11.63;5.77;;;;;;;18.03;87.97;100487.16;6027783;28;20034;-65
2022/06/25 05:08:47;;;;;;;8.95;6.18;;;;;;;18.06;88.26;100502.88;6032984;28;20042;-67
2022/06/25 05:11:43;;;;;;;9.13;6.40;;;;;;;17.94;88.08;100491.84;6028169;28;20038;-67
2022/06/25 05:14:38;;;;;;;8.70;5.72;;;;;;;18.18;87.43;100494.03;6020425;28;20545;-67
2022/06/25 05:17:34;;;;;;;11.50;6.07;;;;;;;18.43;86.65;100505.06;6027947;28;20034;-67
2022/06/25 05:20:29;;;;;;;12.75;6.00;;;;;;;18.63;84.49;100489.88;6028798;28;20030;-67
2022/06/25 05:23:25;;;;;;;8.97;5.80;;;;;;;18.98;85.04;100493.22;6022198;28;20041;-67
2022/06/25 05:26:20;;;;;;;8.10;4.50;;;;;;;19.69;80.67;100491.53;6029396;28;20629;-65
2022/06/25 05:29:15;;;;;;;7.30;4.90;;;;;;;20.43;77.73;100494.63;6024517;28;20049;-65
2022/06/25 05:32:11;;;;;;;6.70;4.23;;;;;;;21.36;73.66;100501.84;6028582;28;20038;-65
2022/06/25 05:35:06;;;;;;;7.23;4.30;;;;;;;21.73;71.68;100496.50;6022852;28;20293;-65
2022/06/25 05:38:01;;;;;;;5.10;3.75;;;;;;;22.59;69.39;100501.69;6028312;28;20022;-66
2022/06/25 05:40:57;;;;;;;5.60;3.80;;;;;;;23.11;66.59;100511.75;6028346;28;20034;-65
2022/06/25 05:43:52;;;;;;;6.90;4.43;;;;;;;23.46;63.87;100501.81;6026021;28;20054;-66
2022/06/25 05:46:48;;;;;;;5.17;4.13;;;;;;;23.20;65.22;100526.59;6028804;28;20092;-65
2022/06/25 05:49:43;;;;;;;6.73;4.13;;;;;;;23.19;65.06;100524.13;6024112;28;20057;-68
2022/06/25 05:52:38;;;;;;;7.40;4.27;;;;;;;22.43;67.89;100531.03;6029082;28;20030;-67
2022/06/25 05:55:34;;;;;;;5.77;4.13;;;;;;;21.67;70.75;100530.63;6029524;28;20292;-67
2022/06/25 05:58:29;;;;;;;6.70;4.75;;;;;;;21.56;72.41;100534.03;6024717;28;20289;-67
2022/06/25 06:01:24;;;;;;;6.07;3.87;;;;;;;21.50;72.86;100528.72;6027845;28;20507;-67
2022/06/25 06:04:20;;;;;;;4.90;4.23;;;;;;;22.79;68.57;100530.16;6025413;28;20080;-67
2022/06/25 06:07:15;;;;;;;5.60;4.20;;;;;;;23.02;67.72;100534.78;6026786;28;20074;-67
2022/06/25 06:10:10;;;;;;;6.07;4.57;;;;;;;23.49;65.08;100520.31;6027828;28;20284;-67
2022/06/25 06:13:06;;;;;;;7.63;4.17;;;;;;;23.84;64.55;100527.59;6020927;28;20043;-68
2022/06/25 06:16:01;;;;;;;7.35;3.40;;;;;;;24.45;62.92;100525.13;6016527;28;20285;-67
2022/06/25 06:18:56;;;;;;;3.70;2.80;;;;;;;25.52;58.02;100523.25;6027992;28;20034;-68
2022/06/25 06:21:52;;;;;;;4.17;2.60;;;;;;;25.84;56.44;100540.59;6024564;28;20093;-68
2022/06/25 06:24:48;;;;;;;5.13;2.95;;;;;;;25.42;56.44;100537.50;6027232;28;20281;-67
2022/06/25 06:27:43;;;;;;;4.88;3.35;;;;;;;25.41;56.14;100541.25;6022819;28;20039;-67
2022/06/25 06:30:39;;;;;;;5.23;3.17;;;;;;;25.55;55.73;100525.47;6009572;28;20046;-67
2022/06/25 06:33:35;;;;;;;4.35;3.00;;;;;;;25.18;56.99;100540.59;6025995;28;20297;-67
2022/06/25 06:36:31;;;;;;;4.45;2.70;;;;;;;24.98;57.88;100540.25;6026355;28;20042;-67
2022/06/25 06:39:26;;;;;;;9.70;3.10;;;;;;;24.60;58.53;100549.81;6019635;28;20042;-67
2022/06/25 06:42:21;;;;;;;4.20;2.70;;;;;;;24.48;59.02;100545.53;6017225;28;20041;-67
2022/06/25 06:45:17;;;;;;;4.10;2.70;;;;;;;24.02;60.90;100557.28;6020037;28;20439;-68
2022/06/25 06:48:12;;;;;;;5.73;2.90;;;;;;;23.73;61.55;100556.31;6025817;28;20308;-67
2022/06/25 06:51:07;;;;;;;4.13;2.70;;;;;;;23.63;62.72;100565.06;6022717;28;20042;-67
2022/06/25 06:54:03;;;;;;;4.57;2.97;;;;;;;23.66;63.33;100564.59;6018767;28;20092;-67
2022/06/25 06:56:58;;;;;;;5.43;3.30;;;;;;;23.70;63.10;100570.34;6026909;28;20288;-67
2022/06/25 06:59:53;;;;;;;4.95;2.80;;;;;;;24.03;61.57;100573.28;6019179;28;20756;-67
2022/06/25 07:02:49;;;;;;;4.93;2.90;;;;;;;23.81;61.94;100568.72;6025198;28;20044;-67
2022/06/25 07:05:44;;;;;;;4.53;2.90;;;;;;;23.82;63.07;100568.47;6021067;28;20309;-67
2022/06/25 07:08:39;;;;;;;9.30;2.57;;;;;;;23.97;62.50;100578.84;6016048;28;20286;-67
2022/06/25 07:11:36;;;;;;;5.65;2.80;;;;;;;23.79;62.62;100562.69;6012025;28;20038;-67
2022/06/25 07:14:31;;;;;;;3.30;2.35;;;;;;;23.92;62.58;100570.56;6015345;28;20018;-67
2022/06/25 07:17:26;;;;;;;3.57;2.43;;;;;;;24.12;60.70;100568.34;6026905;28;20045;-67
2022/06/25 07:20:22;;;;;;;3.63;2.40;;;;;;;24.06;59.77;100563.84;6033637;28;20053;-67
2022/06/25 07:23:17;;;;;;;4.00;2.33;;;;;;;23.70;60.95;100559.50;6021798;28;20027;-67
2022/06/25 07:26:12;;;;;;;4.63;2.70;;;;;;;23.57;60.87;100559.75;6025830;28;20285;-67
2022/06/25 07:29:07;;;;;;;3.03;2.13;;;;;;;23.87;61.48;100570.47;6017787;28;20155;-65
2022/06/25 07:32:03;;;;;;;5.63;2.43;;;;;;;24.22;59.09;100565.84;6036678;28;20641;-65
2022/06/25 07:34:58;;;;;;;4.05;2.60;;;;;;;25.01;56.71;100575.88;6021138;28;20332;-65
2022/06/25 07:37:55;;;;;;;4.37;2.23;;;;;;;25.35;56.45;100585.72;6023531;28;20038;-68
2022/06/25 07:40:50;;;;;;;4.85;2.67;;;;;;;24.80;56.81;100585.53;6022362;28;20042;-65
2022/06/25 07:43:46;;;;;;;6.18;2.55;;;;;;;24.38;58.91;100578.66;6019823;28;20034;-67
2022/06/25 07:46:41;;;;;;;3.77;2.20;;;;;;;23.94;59.99;100582.84;6019715;28;20049;-68
2022/06/25 07:51:56;;;;;;;3.70;2.30;;;;;;;24.35;59.53;100587.28;6024703;28;20511;-67
2022/06/25 07:52:51;;;;;;;4.75;2.33;;;;;;;24.53;59.17;100592.56;6025075;28;20046;-65
2022/06/25 07:55:47;;;;;;;5.20;2.37;;;;;;;25.34;56.90;100588.66;6025568;28;20046;-67
2022/06/25 07:58:42;;;;;;;4.30;2.33;;;;;;;25.90;54.48;100579.56;6021997;28;20281;-65
2022/06/25 08:01:37;;;;;;;2.93;2.10;;;;;;;25.51;55.06;100583.28;6025411;28;20034;-66
2022/06/25 08:04:33;;;;;;;5.97;2.00;;;;;;;25.99;53.18;100587.00;6025221;28;20335;-68
2022/06/25 08:07:28;;;;;;;3.22;1.90;;;;;;;26.11;51.08;100583.38;6024863;28;20061;-66
2022/06/25 08:10:23;;;;;;;3.47;1.80;;;;;;;25.64;52.52;100585.66;6025413;28;20121;-65
2022/06/25 08:13:19;;;;;;;3.27;2.00;;;;;;;25.70;52.25;100593.66;6022363;28;20288;-66
2022/06/25 08:16:14;;;;;;;4.73;2.03;;;;;;;25.90;51.52;100593.16;6023889;28;20042;-66
2022/06/25 08:19:09;;;;;;;5.77;2.10;;;;;;;25.99;52.37;100592.44;6019154;28;20273;-66
2022/06/25 08:22:05;;;;;;;5.88;2.30;;;;;;;25.98;52.49;100585.34;6017965;28;20204;-66
2022/06/25 08:25:00;;;;;;;4.83;2.00;;;;;;;25.96;53.13;100592.94;6020366;28;20045;-66
2022/06/25 08:27:55;;;;;;;3.53;1.93;;;;;;;26.34;51.12;100594.03;6024491;28;20045;-67
2022/06/25 08:30:51;;;;;;;3.47;1.80;;;;;;;26.95;49.82;100591.00;6024461;28;20277;-67
2022/06/25 08:33:46;;;;;;;4.37;2.00;;;;;;;26.54;50.25;100588.88;6029478;28;20041;-67
2022/06/25 08:36:41;;;;;;;3.20;1.75;;;;;;;26.57;50.42;100588.34;6023515;28;20630;-67
2022/06/25 08:39:37;;;;;;;3.57;2.00;;;;;;;27.24;49.08;100588.00;6029127;28;20057;-67
2022/06/25 08:42:32;;;;;;;4.30;2.20;;;;;;;27.23;47.95;100589.09;6027478;28;20360;-66
2022/06/25 08:45:27;;;;;;;6.88;1.92;;;;;;;27.05;48.55;100584.81;6028173;28;20048;-67
2022/06/25 08:48:25;;;;;;;5.05;1.63;;;;;;;26.95;48.76;100585.56;6028856;28;20374;-67
2022/06/25 08:51:21;;;;;;;4.00;1.73;;;;;;;26.38;50.71;100601.47;6032139;28;20053;-67
2022/06/25 08:54:16;;;;;;;2.70;2.15;;;;;;;25.70;51.47;100601.81;6026098;28;20034;-66
2022/06/25 08:57:12;;;;;;;3.08;2.03;;;;;;;25.81;51.61;100600.88;6025059;28;20034;-66
2022/06/25 09:00:07;;;;;;;4.10;1.77;;;;;;;26.03;50.26;100593.63;6029065;28;20022;-67
2022/06/25 09:03:04;;;;;;;4.95;2.00;;;;;;;25.16;52.44;100597.03;6025597;28;20030;-66
2022/06/25 09:06:17;;;;;;;2.30;1.80;;;;;;;26.47;49.61;100580.88;6028655;28;20030;-66
2022/06/25 09:09:15;;;;;;;3.78;2.03;;;;;;;26.75;48.35;100584.47;6023217;28;20070;-66
2022/06/25 09:12:13;;;;;;;5.80;2.10;;;;;;;27.24;48.89;100577.94;6022188;28;20092;-67
2022/06/25 09:15:17;;;;;;;2.65;1.70;;;;;;;27.23;47.22;100573.56;6022885;28;20026;-67
2022/06/25 09:18:14;;;;;;;4.90;1.63;;;;;;;27.37;47.66;100571.25;6020010;28;20101;-67
2022/06/25 09:21:10;;;;;;;5.88;1.83;;;;;;;27.34;47.70;100571.75;6025233;28;20030;-67
2022/06/25 09:24:11;;;;;;;3.55;2.03;;;;;;;27.28;48.49;100578.25;6015913;28;20065;-67
2022/06/25 09:27:07;;;;;;;3.20;1.90;;;;;;;26.69;48.68;100574.63;6028939;28;20104;-67
2022/06/25 09:30:10;;;;;;;2.08;1.52;;;;;;;26.21;48.42;100594.41;6019506;28;20038;-67
2022/06/25 09:33:06;;;;;;;4.03;1.50;;;;;;;26.20;49.84;100581.91;6027581;28;20038;-67
2022/06/25 09:36:01;;;;;;;2.80;1.57;;;;;;;26.55;46.95;100585.88;6029184;28;20061;-67
2022/06/25 09:38:56;;;;;;;4.03;1.30;;;;;;;26.19;48.49;100589.22;6023810;28;20345;-66
2022/06/25 09:41:53;;;;;;;2.20;1.60;;;;;;;25.96;48.45;100576.66;6034810;28;20034;-67
2022/06/25 09:44:50;;;;;;;2.95;1.60;;;;;;;25.92;48.28;100586.38;6028982;28;20177;-67
2022/06/25 09:47:46;;;;;;;2.10;1.50;;;;;;;26.62;46.77;100574.81;6023144;28;20034;-67
2022/06/25 09:50:41;;;;;;;4.15;1.40;;;;;;;27.14;46.30;100573.22;6025323;28;20394;-66
2022/06/25 09:53:56;;;;;;;4.13;1.60;;;;;;;27.80;43.99;100568.34;6026685;28;20481;-66
2022/06/25 09:56:52;;;;;;;3.22;1.48;;;;;;;28.22;43.65;100574.59;6028179;28;20042;-67
2022/06/25 09:59:50;;;;;;;2.72;1.65;;;;;;;27.94;42.58;100557.78;6022555;28;20034;-65
2022/06/25 10:02:47;;;;;;;1.95;1.40;;;;;;;28.46;41.84;100558.59;6042697;28;21380;-65
2022/06/25 10:05:42;;;;;;;3.42;1.40;;;;;;;28.42;42.31;100557.50;6027795;28;20117;-66
2022/06/25 10:08:39;;;;;;;1.80;1.40;;;;;;;28.94;41.41;100555.47;6027067;28;20034;-66
2022/06/25 10:11:37;;;;;;;2.92;1.10;;;;;;;29.25;41.80;100567.28;6025938;28;20665;-66
2022/06/25 10:14:34;;;;;;;2.95;1.40;;;;;;;29.42;42.13;100562.38;6027703;28;20030;-66
2022/06/25 10:17:30;;;;;;;2.88;1.33;;;;;;;28.80;39.56;100556.28;6028249;28;20026;-65
2022/06/25 10:20:25;;;;;;;2.20;1.30;;;;;;;28.78;39.24;100555.72;6024570;28;20088;-66
2022/06/25 10:23:21;;;;;;;8.75;1.20;;;;;;;28.62;39.24;100557.59;6024689;28;20441;-65
2022/06/25 10:26:16;;;;;;;2.35;1.30;;;;;;;28.65;40.51;100553.50;6027063;28;20041;-66
2022/06/25 10:29:27;;;;;;;2.65;1.58;;;;;;;29.08;41.14;100553.03;6025904;28;20026;-65
2022/06/25 10:32:23;;;;;;;3.05;1.13;;;;;;;29.06;39.50;100552.50;6011001;28;20104;-66
2022/06/25 10:35:33;;;;;;;1.60;1.20;;;;;;;29.24;38.20;100543.81;6040814;28;20482;-66
2022/06/25 10:38:28;;;;;;;2.08;1.48;;;;;;;29.46;38.96;100547.06;6017923;28;20034;-66
2022/06/25 10:44:37;;;;;;;4.07;1.50;;;;;;;29.84;37.75;100542.13;6025912;28;20034;-66
2022/06/25 10:47:40;;;;;;;2.50;1.50;;;;;;;29.13;38.44;100553.06;6020826;28;20042;-66
2022/06/25 10:50:36;;;;;;;3.00;1.00;;;;;;;28.81;38.14;100544.25;6025087;28;20429;-66
2022/06/25 10:53:31;;;;;;;4.40;1.52;;;;;;;28.66;40.48;100531.41;6023214;28;20034;-66
2022/06/25 10:56:46;;;;;;;2.67;1.30;;;;;;;29.02;40.02;100540.47;6027353;28;20034;-66
2022/06/25 10:59:51;;;;;;;2.38;1.15;;;;;;;29.22;37.76;100537.78;6024816;28;20492;-66
2022/06/25 11:02:53;;;;;;;3.05;1.42;;;;;;;28.98;37.69;100542.09;6022935;28;20326;-66
2022/06/25 11:05:48;;;;;;;2.00;1.15;;;;;;;28.96;38.19;100541.56;6016422;28;20042;-66
2022/06/25 11:08:44;;;;;;;2.10;1.43;;;;;;;29.55;37.98;100535.56;6026923;28;20141;-66
2022/06/25 11:11:41;;;;;;;1.85;1.23;;;;;;;29.28;37.33;100538.59;6018749;28;20035;-66
2022/06/25 11:14:36;;;;;;;2.05;1.30;;;;;;;29.48;37.59;100539.44;6021946;28;20045;-66
2022/06/25 11:17:32;;;;;;;1.93;1.33;;;;;;;29.73;38.81;100535.00;6018431;28;20038;-67
2022/06/25 11:20:28;;;;;;;3.80;1.33;;;;;;;29.86;38.43;100532.56;6026204;28;20265;-67
2022/06/25 11:23:25;;;;;;;4.25;1.10;;;;;;;30.35;38.28;100527.16;6010917;28;20502;-67
2022/06/25 11:29:55;;;;;;;7.40;1.60;;;;;;;30.65;37.39;100535.25;6025029;28;20113;-67
2022/06/25 11:32:51;;;;;;;1.88;1.35;;;;;;;29.86;38.51;100529.81;6014617;28;20046;-67
2022/06/25 11:35:46;;;;;;;4.82;1.45;;;;;;;29.47;39.50;100536.94;6022956;28;20038;-66
2022/06/25 11:38:43;;;;;;;3.22;1.35;;;;;;;28.71;41.48;100522.41;6019062;28;20046;-66
2022/06/25 11:41:38;;;;;;;1.73;1.30;;;;;;;28.10;41.28;100527.59;6016250;28;20500;-66
2022/06/25 11:44:38;;;;;;;1.70;1.30;;;;;;;28.40;38.94;100520.66;6026057;28;20052;-66
2022/06/25 11:47:33;;;;;;;3.53;1.50;;;;;;;29.14;38.48;100529.25;6025326;28;20076;-66
2022/06/25 11:50:29;;;;;;;2.10;1.10;;;;;;;29.74;38.17;100520.22;6025264;28;20042;-66
2022/06/25 11:53:24;;;;;;;1.60;1.05;;;;;;;30.36;37.42;100514.31;6033099;28;20390;-66
2022/06/25 11:56:20;;;;;;;2.85;1.30;;;;;;;29.91;36.09;100520.75;6024676;28;20133;-66
2022/06/25 11:59:32;;;;;;;2.50;1.10;;;;;;;30.20;34.95;100529.97;6024595;28;20109;-66
2022/06/25 12:02:27;;;;;;;1.75;1.10;;;;;;;30.24;35.94;100525.56;6012332;28;20034;-67
2022/06/25 12:05:23;;;;;;;1.60;1.07;;;;;;;30.09;36.42;100520.16;6024309;28;20057;-67
2022/06/25 12:08:18;;;;;;;3.00;1.30;;;;;;;30.24;35.42;100525.56;6023105;28;20030;-67
2022/06/25 12:11:13;;;;;;;3.63;1.03;;;;;;;30.25;34.83;100529.94;6016737;28;20043;-68
2022/06/25 12:14:09;;;;;;;1.85;1.20;;;;;;;30.06;36.00;100520.69;6017963;28;20285;-67
2022/06/25 12:17:05;;;;;;;1.43;0.87;;;;;;;30.79;34.97;100513.53;6021792;28;20425;-67
2022/06/25 12:20:07;;;;;;;2.33;1.30;;;;;;;31.01;34.36;100513.13;6025606;28;20297;-67
2022/06/25 12:23:02;;;;;;;2.90;1.10;;;;;;;31.21;33.66;100515.69;6012073;28;20033;-67
2022/06/25 12:25:58;;;;;;;2.78;1.20;;;;;;;30.37;34.37;100511.31;6021174;28;20493;-67
2022/06/25 12:29:08;;;;;;;3.05;1.23;;;;;;;30.43;33.33;100526.63;6025773;28;20033;-67
2022/06/25 12:32:03;;;;;;;2.83;1.35;;;;;;;30.64;34.19;100519.09;6015894;28;20031;-67
2022/06/25 12:34:58;;;;;;;2.00;0.98;;;;;;;30.83;32.12;100508.28;6020119;28;20041;-67
2022/06/25 12:38:08;;;;;;;2.63;1.07;;;;;;;30.77;31.74;100509.41;6024177;28;20153;-68
2022/06/25 12:41:03;;;;;;;2.58;0.90;;;;;;;30.76;31.63;100516.84;6024556;28;20054;-68
2022/06/25 12:43:58;;;;;;;2.67;1.07;;;;;;;30.96;32.11;100510.41;6024334;28;20437;-67
2022/06/25 12:47:05;;;;;;;1.57;1.10;;;;;;;30.28;34.34;100515.69;6020075;28;20274;-67
2022/06/25 12:50:01;;;;;;;3.28;1.20;;;;;;;31.05;32.79;100501.31;6018170;28;20295;-67
2022/06/25 12:53:08;;;;;;;1.77;1.07;;;;;;;31.54;33.75;100506.66;6017344;28;20034;-67
2022/06/25 12:56:04;;;;;;;2.65;1.20;;;;;;;31.44;32.88;100516.88;6025108;28;20030;-67
2022/06/25 12:59:02;;;;;;;2.40;1.00;;;;;;;31.23;32.26;100521.69;6030442;28;20045;-67
2022/06/25 13:01:57;;;;;;;3.45;1.40;;;;;;;30.85;34.07;100511.59;6029161;28;20038;-67
2022/06/25 13:04:52;;;;;;;1.20;0.90;;;;;;;30.75;33.93;100511.63;6022713;28;20366;-67
2022/06/25 13:07:48;;;;;;;5.95;1.40;;;;;;;31.20;34.02;100503.13;6029629;28;20026;-68
2022/06/25 13:10:43;;;;;;;2.30;1.40;;;;;;;31.11;33.10;100502.09;6016594;28;20043;-67
2022/06/25 13:13:39;;;;;;;3.13;1.38;;;;;;;31.05;33.79;100487.59;6025497;28;20093;-68
2022/06/25 13:16:34;;;;;;;4.17;1.40;;;;;;;30.42;35.86;100497.59;6029781;28;20037;-68
2022/06/25 13:19:30;;;;;;;2.30;1.37;;;;;;;30.56;35.89;100501.34;6028546;28;20285;-67
2022/06/25 13:22:26;;;;;;;3.95;1.30;;;;;;;31.03;34.36;100494.47;6024675;28;20030;-68
2022/06/25 13:25:21;;;;;;;4.45;1.35;;;;;;;31.49;33.45;100489.44;6027668;28;20031;-67
2022/06/25 13:28:16;;;;;;;1.70;1.10;;;;;;;31.78;32.79;100499.25;6029252;28;20035;-67
2022/06/25 13:31:12;;;;;;;2.77;1.10;;;;;;;32.02;32.16;100502.03;6016850;28;20042;-68
2022/06/25 13:34:07;;;;;;;3.13;1.40;;;;;;;31.44;32.24;100506.72;6028208;28;20034;-68
2022/06/25 13:37:03;;;;;;;1.33;1.20;;;;;;;31.87;31.76;100498.63;6024973;28;20037;-68
2022/06/25 13:39:58;;;;;;;2.60;1.30;;;;;;;32.54;30.96;100487.34;6021772;28;20030;-67
2022/06/25 13:42:54;;;;;;;4.33;1.23;;;;;;;32.45;31.48;100500.13;6008478;28;20065;-67
2022/06/25 13:45:49;;;;;;;1.77;1.10;;;;;;;32.42;31.54;100494.38;6026917;28;20274;-68
2022/06/25 13:48:45;;;;;;;2.70;1.27;;;;;;;32.06;31.86;100503.09;6015509;28;20129;-67